• Join FlightAware (Why Join?)
  • Login
  • US Flag 
02:18AM EDT


 

Airport Tracker/Info


-or-


 

Live Flight TrackerFlight Track Log ✈ ASQ5401 ✈ 22-Jul-2013 ✈ KATL - KAGS

Flight Track Log - Related Links

Times and Time Zones

All times are in EDT time to prevent confusion due to time zone crossing. See the ASQ5401 flight status page for this flight to view local times or setup timezone preferences in your user account.

Time Position Orientation Groundspeed Altitude Reporting Facility
EDT Latitude Longitude Course Direction KTS MPH feet Rate Location/Type
02:11PM 33.6203 -84.4728 118° Southeast 363 418 2,500  Level Atlanta Center
02:12PM 33.5867 -84.5400 239° Southwest 294 338 4,300 2,220 Climbing Atlanta Center
02:13PM 33.5342 -84.5944 221° Southwest 253 291 7,000 2,520 Climbing Atlanta Center
02:14PM 33.4633 -84.5592 157° South 309 356 9,400 2,220 Climbing Atlanta Center
02:15PM 33.4575 -84.4547 94° East 335 386 11,500 1,800 Climbing Atlanta Center
02:16PM 33.4683 -84.3378 84° East 329 379 13,100 1,500 Climbing Atlanta Center
02:17PM 33.6845 -83.9597 118° Southeast  Level FlightAware Approximate
02:17PM 33.5122 -84.2281 64° Northeast 339 390 14,600  Level Atlanta Center
02:18PM 33.5333 -84.1086 78° East 354 407 16,300 1,440 Climbing Atlanta Center
02:19PM 33.5439 -83.9814 84° East 367 422 17,500 1,260 Climbing Atlanta Center
02:20PM 33.5561 -83.8569 83° East 376 433 18,900 720 Climbing Atlanta Center
02:21PM 33.5683 -83.7272 84° East 388 447 19,000  Climbing Atlanta Center
02:22PM 33.5806 -83.5950 84° East 388 447 19,000  Level Atlanta Center
02:23PM 33.5906 -83.4628 85° East 393 452 19,000  Level Atlanta Center
02:24PM 33.6044 -83.3306 83° East 393 452 19,000  Level Atlanta Center
02:25PM 33.6161 -83.1931 84° East 406 467 19,000  Level Atlanta Center
02:26PM 33.6275 -83.0608 84° East 406 467 19,000 -540 Level Atlanta Center
02:27PM 33.6203 -82.9286 94° East 395 455 18,000 -1,320 Descending Atlanta Center
02:28PM 33.5878 -82.8069 108° East 390 449 16,400 -1,500 Descending Atlanta Center
02:29PM 33.5614 -82.7000 106° East 375 432 15,000 -900 Descending Atlanta Center
02:30PM 33.5708 -82.6028 83° East 318 366 14,600 -1,020 Descending Atlanta Center
02:31PM 33.5800 -82.5028 84° East 280 322 13,000 -2,460 Descending Atlanta Center
02:32PM 33.5978 -82.4228 75° East 261 300 9,800 -2,880 Descending Atlanta Center
02:33PM 33.6114 -82.3425 78° East 255 293 7,300 -2,640 Descending Atlanta Center
02:34PM 33.6019 -82.2656 98° East 236 272 4,600 -2,160 Descending Atlanta Center
02:35PM 33.5925 -82.1933 99° East 231 266 3,000 -840 Descending Atlanta Center
02:36PM 33.5728 -82.1339 112° Southeast 207 238 3,000 -120 Level Atlanta Center
02:37PM 33.5447 -82.0797 122° Southeast 200 230 2,800 -240 Descending Atlanta Center
02:39PM 33.4741 -82.0204 157° South  Level FlightAware Approximate
02:46PM 33.3699 -81.9645 148° Southeast  Level Estimated
02:47PM 33.3699 -81.9645 148° Southeast  Level Estimated
02:48PM 33.3699 -81.9645 148° Southeast  Level Estimated
02:49PM 33.3699 -81.9645 148° Southeast  Level Estimated
02:50PM 33.3699 -81.9645 148° Southeast  Level Estimated
02:51PM 33.3699 -81.9645 148° Southeast  Level Estimated